createdAt,value
2019-01-21T00:01:06.302Z,249.93
2019-01-21T00:03:36.504Z,265.27
2019-01-21T00:06:06.582Z,266.63
2019-01-21T00:08:36.916Z,249.33
2019-01-21T00:11:06.747Z,256.47
2019-01-21T00:13:36.956Z,260.87
2019-01-21T00:16:06.557Z,261.60
2019-01-21T00:18:36.663Z,237.03
2019-01-21T00:21:06.302Z,243.17
2019-01-21T00:23:36.818Z,275.33
2019-01-21T00:26:06.779Z,271.97
2019-01-21T00:28:36.547Z,267.67
2019-01-21T00:31:06.333Z,254.50
2019-01-21T00:33:36.048Z,255.93
2019-01-21T00:36:06.412Z,260.87
2019-01-21T00:38:37.819Z,257.63
2019-01-21T00:41:15.970Z,244.03
2019-01-21T00:43:46.326Z,242.70
2019-01-21T00:46:16.280Z,253.33
2019-01-21T00:48:46.819Z,253.70
2019-01-21T00:51:16.884Z,435.27
2019-01-21T00:56:25.015Z,480.10
2019-01-21T00:58:54.984Z,399.57
2019-01-21T01:01:24.773Z,388.23
2019-01-21T01:03:55.028Z,329.63
2019-01-21T01:06:25.358Z,400.07
2019-01-21T01:08:55.327Z,313.87
2019-01-21T01:11:25.514Z,289.33
2019-01-21T01:13:55.289Z,291.00
2019-01-21T01:16:25.687Z,285.40
2019-01-21T01:18:55.758Z,298.03
2019-01-21T01:21:25.831Z,316.83
2019-01-21T01:23:55.936Z,307.33
2019-01-21T01:26:26.086Z,304.87
2019-01-21T01:28:56.185Z,284.30
2019-01-21T01:31:26.476Z,276.67
2019-01-21T01:33:56.439Z,263.83
2019-01-21T01:36:26.771Z,255.70
2019-01-21T01:38:56.694Z,270.00
2019-01-21T01:41:27.103Z,276.97
2019-01-21T01:43:56.575Z,257.33
2019-01-21T01:46:26.527Z,268.87
2019-01-21T01:48:56.290Z,270.37
2019-01-21T01:51:26.092Z,257.47
2019-01-21T01:53:56.129Z,254.67
2019-01-21T01:56:26.268Z,268.73
2019-01-21T01:58:56.566Z,303.53
2019-01-21T02:01:27.671Z,283.20
2019-01-21T02:03:57.755Z,259.13
2019-01-21T02:06:27.650Z,255.77
2019-01-21T02:08:57.910Z,271.17
2019-01-21T02:11:28.027Z,266.43
2019-01-21T02:13:57.812Z,246.40
2019-01-21T02:16:27.929Z,269.77
2019-01-21T02:18:57.748Z,257.20
2019-01-21T02:21:28.081Z,255.80
2019-01-21T02:23:57.578Z,280.67
2019-01-21T02:26:27.891Z,277.43
2019-01-21T02:28:58.281Z,259.20
2019-01-21T02:31:31.163Z,257.10
2019-01-21T02:34:02.973Z,268.23
2019-01-21T02:36:33.077Z,300.00
2019-01-21T02:39:04.120Z,283.27
2019-01-21T02:41:34.057Z,250.00
2019-01-21T02:44:04.156Z,272.03
2019-01-21T02:46:33.539Z,319.83
2019-01-21T02:49:03.247Z,343.80
2019-01-21T02:51:33.171Z,336.73
2019-01-21T02:54:02.931Z,325.40
2019-01-21T02:56:32.535Z,355.83
2019-01-21T02:59:02.320Z,391.67
2019-01-21T03:01:40.013Z,407.67
2019-01-21T03:04:09.995Z,385.30
2019-01-21T03:06:39.567Z,414.83
2019-01-21T03:09:09.415Z,397.97
2019-01-21T03:11:39.523Z,395.17
2019-01-21T03:14:08.793Z,403.77
2019-01-21T03:16:38.107Z,415.77
2019-01-21T03:19:07.442Z,419.93
2019-01-21T03:21:36.650Z,407.83
2019-01-21T03:24:06.367Z,392.20
2019-01-21T03:26:35.541Z,394.10
2019-01-21T03:29:04.617Z,384.63
2019-01-21T03:31:33.809Z,381.67
2019-01-21T03:34:03.178Z,378.07
2019-01-21T03:36:32.756Z,380.73
2019-01-21T03:47:07.998Z,335.07
2019-01-21T03:49:37.530Z,351.97
2019-01-21T03:52:06.719Z,332.73
2019-01-21T03:54:36.250Z,333.53
2019-01-21T04:10:39.017Z,313.60
2019-01-21T04:43:01.506Z,236.20
2019-01-21T04:45:42.737Z,239.53
2019-01-21T04:48:24.029Z,244.97
2019-01-21T04:51:04.594Z,240.17
2019-01-21T04:53:44.686Z,243.03
2019-01-21T04:56:25.691Z,239.90
2019-01-21T04:59:06.655Z,230.50
2019-01-21T05:01:47.288Z,219.27
2019-01-21T05:04:28.507Z,209.13
2019-01-21T05:07:08.904Z,230.43
2019-01-21T05:09:50.106Z,222.80
2019-01-21T05:12:30.459Z,210.67
2019-01-21T05:15:11.118Z,177.47
2019-01-21T05:17:52.022Z,212.87
2019-01-21T05:20:33.294Z,207.30
2019-01-21T05:23:14.609Z,225.33
2019-01-21T05:25:55.768Z,219.93
2019-01-21T05:28:36.925Z,203.40
2019-01-21T05:31:17.466Z,216.43
2019-01-21T05:33:57.732Z,224.97
2019-01-21T05:36:38.078Z,239.40
2019-01-21T05:39:19.085Z,236.00
2019-01-21T05:41:59.445Z,252.40
2019-01-21T05:44:40.097Z,254.43
2019-01-21T05:47:20.491Z,242.97
2019-01-21T05:50:01.360Z,245.80
2019-01-21T05:52:42.065Z,242.67
2019-01-21T05:55:22.669Z,245.60
2019-01-21T05:58:03.022Z,235.97
2019-01-21T06:00:43.793Z,218.97
2019-01-21T06:03:23.941Z,221.90
2019-01-21T06:06:04.787Z,223.63
2019-01-21T06:08:45.278Z,231.73
2019-01-21T06:11:25.861Z,239.90
2019-01-21T06:14:06.663Z,238.30
2019-01-21T06:16:47.530Z,214.30
2019-01-21T06:19:28.388Z,190.80
2019-01-21T06:22:09.731Z,193.73
2019-01-21T06:24:50.338Z,230.17
2019-01-21T06:27:30.753Z,213.47
2019-01-21T06:30:11.934Z,225.83
2019-01-21T06:32:53.056Z,220.17
2019-01-21T06:35:34.482Z,221.60
2019-01-21T06:38:15.332Z,220.63
2019-01-21T06:40:56.273Z,208.43
2019-01-21T06:43:37.267Z,208.67
2019-01-21T06:46:18.254Z,218.57
2019-01-21T06:49:04.688Z,216.87
2019-01-21T06:51:40.894Z,247.47
2019-01-21T06:54:22.149Z,245.30
2019-01-21T06:57:03.312Z,271.93
2019-01-21T06:59:44.460Z,254.03
2019-01-21T07:02:25.291Z,260.80
2019-01-21T07:05:06.679Z,275.13
2019-01-21T07:07:47.561Z,264.93
2019-01-21T07:10:28.496Z,265.73
2019-01-21T07:13:09.276Z,259.87
2019-01-21T07:15:50.791Z,256.63
2019-01-21T07:18:31.660Z,252.57
2019-01-21T07:21:12.060Z,266.93
2019-01-21T07:23:53.097Z,261.63
2019-01-21T07:26:34.253Z,240.83
2019-01-21T07:29:14.711Z,259.80
2019-01-21T07:31:55.695Z,236.77
2019-01-21T07:34:36.890Z,219.37
2019-01-21T07:37:17.357Z,231.60
2019-01-21T07:39:57.970Z,215.53
2019-01-21T07:42:38.859Z,213.23
2019-01-21T07:45:19.421Z,198.10
2019-01-21T07:48:00.061Z,200.13
2019-01-21T07:50:40.724Z,192.13
2019-01-21T07:53:21.139Z,189.03
2019-01-21T07:56:01.565Z,193.17
2019-01-21T07:58:42.912Z,177.57
2019-01-21T08:01:23.921Z,184.93
2019-01-21T08:04:04.962Z,184.27
2019-01-21T08:06:46.060Z,199.97
2019-01-21T08:09:27.091Z,178.93
2019-01-21T08:12:07.683Z,172.27
2019-01-21T08:14:49.031Z,184.23
2019-01-21T08:17:30.089Z,184.30
2019-01-21T08:20:11.286Z,168.97
2019-01-21T08:22:52.519Z,174.87
2019-01-21T08:25:33.090Z,177.10
2019-01-21T08:28:14.516Z,163.90
2019-01-21T08:30:55.587Z,173.77
2019-01-21T08:33:36.206Z,158.23
2019-01-21T08:36:17.091Z,154.27
2019-01-21T08:38:57.750Z,149.77
2019-01-21T08:41:38.357Z,141.37
2019-01-21T08:44:19.046Z,139.30
2019-01-21T08:47:00.183Z,133.47
2019-01-21T08:49:41.541Z,142.43
2019-01-21T08:52:22.427Z,145.00
2019-01-21T08:55:02.993Z,148.07
2019-01-21T08:57:43.706Z,154.10
2019-01-21T09:00:24.768Z,138.60
2019-01-21T09:03:05.920Z,162.87
2019-01-21T09:05:46.922Z,150.93
2019-01-21T09:08:28.596Z,142.03
2019-01-21T09:11:09.072Z,150.27
2019-01-21T09:13:50.091Z,153.83
2019-01-21T09:16:30.750Z,157.23
2019-01-21T09:19:12.030Z,149.80
2019-01-21T09:21:52.424Z,134.77
2019-01-21T09:24:33.179Z,135.83
2019-01-21T09:27:14.051Z,140.53
2019-01-21T09:29:54.895Z,145.83
2019-01-21T09:32:35.843Z,137.83
2019-01-21T09:35:16.502Z,131.73
2019-01-21T09:37:57.541Z,145.83
2019-01-21T09:40:38.411Z,128.07
2019-01-21T09:43:19.406Z,135.37
2019-01-21T09:46:00.058Z,133.33
2019-01-21T09:48:40.644Z,133.70
2019-01-21T09:51:21.938Z,128.57
2019-01-21T09:54:03.544Z,124.63
2019-01-21T09:56:44.517Z,122.10
2019-01-21T09:59:25.445Z,120.07
2019-01-21T10:02:06.243Z,119.43
2019-01-21T10:04:47.137Z,113.60
2019-01-21T10:07:28.333Z,112.20
2019-01-21T10:10:09.625Z,112.47
2019-01-21T10:12:50.580Z,107.00
2019-01-21T10:15:30.718Z,107.70
2019-01-21T10:18:11.965Z,99.07
2019-01-21T10:20:52.778Z,96.73
2019-01-21T10:23:33.396Z,95.20
2019-01-21T10:26:13.867Z,97.50
2019-01-21T10:28:55.322Z,87.53
2019-01-21T10:31:36.319Z,88.97
2019-01-21T10:34:17.473Z,94.10
2019-01-21T10:36:58.232Z,87.67
2019-01-21T10:39:38.862Z,84.27
2019-01-21T10:42:19.590Z,89.07
2019-01-21T10:44:59.918Z,91.33
2019-01-21T10:47:40.465Z,96.83
2019-01-21T10:50:21.954Z,93.60
2019-01-21T10:53:02.822Z,87.60
2019-01-21T10:55:44.022Z,87.23
2019-01-21T10:58:24.584Z,91.57
2019-01-21T11:01:05.371Z,100.30
2019-01-21T11:03:46.137Z,94.80
2019-01-21T11:06:26.839Z,93.67
2019-01-21T11:09:08.010Z,88.37
2019-01-21T11:11:53.984Z,86.87
2019-01-21T11:14:29.939Z,90.83
2019-01-21T11:17:11.097Z,95.97
2019-01-21T11:19:52.086Z,91.67
2019-01-21T11:22:33.141Z,98.37
2019-01-21T11:25:14.301Z,91.53
2019-01-21T11:27:55.461Z,93.10
2019-01-21T11:30:36.209Z,97.20
2019-01-21T11:33:17.264Z,90.40
2019-01-21T11:35:58.391Z,96.47
2019-01-21T11:38:38.744Z,97.83
2019-01-21T11:41:19.675Z,92.30
2019-01-21T11:44:00.639Z,109.83
2019-01-21T11:46:41.558Z,115.90
2019-01-21T11:49:22.537Z,111.50
2019-01-21T11:52:03.256Z,107.30
2019-01-21T11:54:44.035Z,120.03
2019-01-21T11:57:25.649Z,148.63
2019-01-21T12:00:07.353Z,122.93
2019-01-21T12:02:48.377Z,136.37
2019-01-21T12:05:29.145Z,156.07
2019-01-21T12:08:10.272Z,231.67
2019-01-21T12:10:51.105Z,215.23
2019-01-21T12:13:31.868Z,187.43
2019-01-21T12:16:12.652Z,211.47
2019-01-21T12:18:54.078Z,187.90
2019-01-21T12:21:35.393Z,174.93
2019-01-21T12:24:16.067Z,180.97
2019-01-21T12:26:57.293Z,216.53
2019-01-21T12:29:38.008Z,273.77
2019-01-21T12:32:18.889Z,266.70
2019-01-21T12:34:59.862Z,233.57
2019-01-21T12:37:40.441Z,251.33
2019-01-21T12:40:21.722Z,237.27
2019-01-21T12:43:02.588Z,211.13
2019-01-21T12:45:43.758Z,204.20
2019-01-21T12:48:24.907Z,197.87
2019-01-21T12:51:05.414Z,213.37
2019-01-21T12:53:46.371Z,188.13
2019-01-21T12:56:26.998Z,175.57
2019-01-21T12:59:07.894Z,208.50
2019-01-21T13:01:48.574Z,195.13
2019-01-21T13:04:29.570Z,207.20
2019-01-21T13:07:10.512Z,240.30
2019-01-21T13:09:51.395Z,255.00
2019-01-21T13:12:32.192Z,264.50
2019-01-21T13:15:12.942Z,284.70
2019-01-21T13:17:54.343Z,234.27
2019-01-21T13:20:34.789Z,219.47
2019-01-21T13:23:15.214Z,217.20
2019-01-21T13:25:56.713Z,228.17
2019-01-21T13:28:38.209Z,227.53
2019-01-21T13:31:18.480Z,241.47
2019-01-21T13:33:58.837Z,255.73
2019-01-21T13:36:39.211Z,260.70
2019-01-21T13:39:19.679Z,259.80
2019-01-21T13:42:00.305Z,269.83
2019-01-21T13:44:42.003Z,325.57
2019-01-21T13:47:22.599Z,349.97
2019-01-21T13:50:03.273Z,375.50
2019-01-21T13:52:44.119Z,324.17
2019-01-21T13:55:25.981Z,301.83
2019-01-21T13:58:06.847Z,311.27
2019-01-21T14:00:47.498Z,304.87
2019-01-21T14:03:28.536Z,316.50
2019-01-21T14:06:08.918Z,318.70
2019-01-21T14:08:49.760Z,281.40
2019-01-21T14:11:30.096Z,299.87
2019-01-21T14:14:10.785Z,277.30
2019-01-21T14:16:51.535Z,265.00
2019-01-21T14:19:32.301Z,287.77
2019-01-21T14:22:12.776Z,291.30
2019-01-21T14:24:53.753Z,274.33
2019-01-21T14:27:37.318Z,261.87
2019-01-21T14:30:18.109Z,264.37
2019-01-21T14:32:58.243Z,263.33
2019-01-21T14:35:39.039Z,255.10
2019-01-21T14:38:20.041Z,265.77
2019-01-21T14:41:00.626Z,268.47
2019-01-21T14:43:41.240Z,263.83
2019-01-21T14:46:22.177Z,270.37
2019-01-21T14:49:04.745Z,263.97
2019-01-21T14:51:44.922Z,265.23
2019-01-21T14:54:25.137Z,277.43
2019-01-21T14:57:05.765Z,290.87
2019-01-21T14:59:46.905Z,278.63
2019-01-21T15:02:27.379Z,259.07
2019-01-21T15:05:07.771Z,249.93
2019-01-21T15:07:48.686Z,331.70
2019-01-21T15:10:29.388Z,272.90
2019-01-21T15:13:09.781Z,251.53
2019-01-21T15:15:50.601Z,280.33
2019-01-21T15:18:30.578Z,276.17
2019-01-21T15:21:11.095Z,296.87
2019-01-21T15:23:51.826Z,292.87
2019-01-21T15:26:32.765Z,310.50
2019-01-21T15:29:15.910Z,308.53
2019-01-21T15:31:57.775Z,306.57
2019-01-21T15:34:38.768Z,311.20
2019-01-21T15:37:19.245Z,312.23
2019-01-21T15:40:00.311Z,829.37
2019-01-21T15:42:40.781Z,515.20
2019-01-21T15:47:58.806Z,365.57
2019-01-21T15:50:38.678Z,343.17
2019-01-21T15:53:19.334Z,338.93
2019-01-21T15:56:00.091Z,327.63
2019-01-21T15:58:40.788Z,332.60
2019-01-21T16:01:21.173Z,331.57
2019-01-21T16:04:01.596Z,351.50
2019-01-21T16:06:42.047Z,343.23
2019-01-21T16:09:22.480Z,368.57
2019-01-21T16:12:02.587Z,377.60
2019-01-21T16:14:43.017Z,367.67
2019-01-21T16:17:23.385Z,338.47
2019-01-21T16:20:04.267Z,350.03
2019-01-21T16:22:44.828Z,347.30
2019-01-21T16:25:25.216Z,336.70
2019-01-21T16:28:05.753Z,340.90
2019-01-21T16:30:46.073Z,345.03
2019-01-21T16:33:26.450Z,350.30
2019-01-21T16:36:07.306Z,358.47
2019-01-21T16:38:47.779Z,353.83
2019-01-21T16:41:28.967Z,359.17
2019-01-21T16:44:08.944Z,366.63
2019-01-21T16:46:49.932Z,348.90
2019-01-21T16:49:30.353Z,355.93
2019-01-21T16:52:10.824Z,351.03
2019-01-21T16:54:51.389Z,357.30
2019-01-21T16:57:32.254Z,360.97
2019-01-21T17:00:12.603Z,370.97
2019-01-21T17:02:53.604Z,392.47
2019-01-21T17:05:34.557Z,382.83
2019-01-21T17:08:15.854Z,379.07
2019-01-21T17:10:56.988Z,367.13
2019-01-21T17:13:38.066Z,356.20
2019-01-21T17:16:19.347Z,370.90
2019-01-21T17:19:00.657Z,360.90
2019-01-21T17:21:41.413Z,351.77
2019-01-21T17:24:22.536Z,335.20
2019-01-21T17:27:02.999Z,337.90
2019-01-21T17:29:43.378Z,344.30
2019-01-21T17:32:23.896Z,322.57
2019-01-21T17:35:05.354Z,339.57
2019-01-21T17:37:46.281Z,312.50
2019-01-21T17:40:26.973Z,315.30
2019-01-21T17:43:08.162Z,320.17
2019-01-21T17:45:49.013Z,316.53
2019-01-21T17:48:29.814Z,311.03
2019-01-21T17:53:55.257Z,309.07
2019-01-21T17:56:36.500Z,301.33
2019-01-21T17:59:18.476Z,285.47
2019-01-21T18:01:59.108Z,300.47
2019-01-21T18:04:39.315Z,294.23
2019-01-21T18:07:20.315Z,297.90
2019-01-21T18:10:02.848Z,288.50
2019-01-21T18:12:43.208Z,293.13
2019-01-21T18:15:23.968Z,290.33
2019-01-21T18:18:04.448Z,296.77
2019-01-21T18:20:45.401Z,313.10
2019-01-21T18:23:26.297Z,305.70
2019-01-21T18:26:07.362Z,324.73
2019-01-21T18:28:47.807Z,316.60
2019-01-21T18:31:28.603Z,333.00
2019-01-21T18:34:08.958Z,329.27
2019-01-21T18:36:49.616Z,360.33
2019-01-21T18:39:30.001Z,363.07
2019-01-21T18:42:11.647Z,351.40
2019-01-21T18:44:52.835Z,379.77
2019-01-21T18:47:33.709Z,352.87
2019-01-21T18:50:14.084Z,337.83
2019-01-21T18:52:56.110Z,338.23
2019-01-21T18:55:36.737Z,331.37
2019-01-21T18:58:17.588Z,361.93
2019-01-21T19:00:58.236Z,343.63
2019-01-21T19:03:38.715Z,344.43
2019-01-21T19:06:19.596Z,326.17
2019-01-21T19:09:00.228Z,341.80
2019-01-21T19:11:40.849Z,359.20
2019-01-21T19:14:21.505Z,330.97
2019-01-21T19:17:02.178Z,303.20
2019-01-21T19:19:43.060Z,308.40
2019-01-21T19:22:24.331Z,290.30
2019-01-21T19:25:05.632Z,305.90
2019-01-21T19:27:46.460Z,311.17
2019-01-21T19:30:27.483Z,303.83
2019-01-21T19:33:07.702Z,323.80
2019-01-21T19:35:48.339Z,327.13
2019-01-21T19:38:28.953Z,318.30
2019-01-21T19:41:09.511Z,299.93
2019-01-21T19:43:50.720Z,305.40
2019-01-21T19:46:31.364Z,302.07
2019-01-21T19:49:11.919Z,317.53
2019-01-21T19:51:52.984Z,302.57
2019-01-21T19:54:33.877Z,301.20
2019-01-21T19:57:14.283Z,308.60
2019-01-21T19:59:54.696Z,330.47
2019-01-21T20:02:35.435Z,330.90
2019-01-21T20:05:16.160Z,313.83
2019-01-21T20:07:57.178Z,294.93
2019-01-21T20:10:37.894Z,291.27
2019-01-21T20:13:18.721Z,293.43
2019-01-21T20:15:59.178Z,276.97
2019-01-21T20:18:40.051Z,289.87
2019-01-21T20:21:20.505Z,304.07
2019-01-21T20:24:01.107Z,283.93
2019-01-21T20:26:41.762Z,282.00
2019-01-21T20:29:22.875Z,289.27
2019-01-21T20:32:03.851Z,276.13
2019-01-21T20:34:44.650Z,283.37
2019-01-21T20:37:25.203Z,292.53
2019-01-21T20:40:06.453Z,279.90
2019-01-21T20:42:47.379Z,273.07
2019-01-21T20:45:28.059Z,286.83
2019-01-21T20:48:08.824Z,289.53
2019-01-21T20:50:49.445Z,283.13
2019-01-21T20:53:30.646Z,300.83
2019-01-21T20:56:12.165Z,305.23
2019-01-21T20:58:53.163Z,300.93
2019-01-21T21:01:34.093Z,287.97
2019-01-21T21:04:15.056Z,292.27
2019-01-21T21:06:56.004Z,265.80
2019-01-21T21:09:36.957Z,272.63
2019-01-21T21:12:17.976Z,284.53
2019-01-21T21:14:58.332Z,299.17
2019-01-21T21:17:39.312Z,291.73
2019-01-21T21:20:20.127Z,291.93
2019-01-21T21:23:01.112Z,268.57
2019-01-21T21:25:41.917Z,274.10
2019-01-21T21:28:22.980Z,264.80
2019-01-21T21:31:04.308Z,263.40
2019-01-21T21:33:44.943Z,273.37
2019-01-21T21:36:25.592Z,270.17
2019-01-21T21:42:17.365Z,284.50
2019-01-21T21:44:58.107Z,278.23
2019-01-21T21:47:39.491Z,266.90
2019-01-21T21:50:20.600Z,261.27
2019-01-21T21:53:01.547Z,268.70
2019-01-21T21:55:42.577Z,266.03
2019-01-21T21:58:23.771Z,277.13
2019-01-21T22:01:04.692Z,275.53
2019-01-21T22:03:45.457Z,273.40
2019-01-21T22:06:27.089Z,265.70
2019-01-21T22:09:08.024Z,271.60
2019-01-21T22:11:48.848Z,268.43
2019-01-21T22:14:29.295Z,273.73
2019-01-21T22:17:10.100Z,272.37
2019-01-21T22:19:51.679Z,249.93
2019-01-21T22:22:34.811Z,273.50
2019-01-21T22:25:13.634Z,264.57
2019-01-21T22:27:54.262Z,288.83
2019-01-21T22:30:35.855Z,270.80
2019-01-21T22:33:16.145Z,272.47
2019-01-21T22:35:57.021Z,258.00
2019-01-21T22:38:38.301Z,254.07
2019-01-21T22:41:19.001Z,268.03
2019-01-21T22:43:59.700Z,262.67
2019-01-21T22:46:40.661Z,247.00
2019-01-21T22:49:21.290Z,254.27
2019-01-21T22:52:02.564Z,249.90
2019-01-21T22:54:43.518Z,231.57
2019-01-21T22:57:24.177Z,248.50
2019-01-21T23:00:05.170Z,245.20
2019-01-21T23:02:46.137Z,243.20
2019-01-21T23:05:27.420Z,264.77
2019-01-21T23:08:07.890Z,247.70
2019-01-21T23:10:49.380Z,247.93
2019-01-21T23:13:30.241Z,237.97
2019-01-21T23:16:11.300Z,238.07
2019-01-21T23:18:52.490Z,238.83
2019-01-21T23:21:33.456Z,235.30
2019-01-21T23:24:16.605Z,243.40
2019-01-21T23:26:56.000Z,241.33
2019-01-21T23:29:36.994Z,241.67
2019-01-21T23:32:17.770Z,251.80
2019-01-21T23:34:58.746Z,255.97
2019-01-21T23:37:40.161Z,237.47
2019-01-21T23:40:21.760Z,229.10
2019-01-21T23:43:02.778Z,231.00
2019-01-21T23:45:43.461Z,252.37
2019-01-21T23:48:24.325Z,255.27
2019-01-21T23:51:04.677Z,260.73
2019-01-21T23:53:45.777Z,256.10
2019-01-21T23:56:26.883Z,251.77
2019-01-21T23:59:08.189Z,249.23
